sensor_id;sensor_type;location;lat;lon;timestamp;temperature;humidity
2202;DHT22;1107;48.654;9.250;2023-04-06T00:00:45;2.90;99.90
2202;DHT22;1107;48.654;9.250;2023-04-06T00:03:12;2.90;99.90
2202;DHT22;1107;48.654;9.250;2023-04-06T00:05:40;2.90;99.90
2202;DHT22;1107;48.654;9.250;2023-04-06T00:08:07;2.90;99.90
2202;DHT22;1107;48.654;9.250;2023-04-06T00:10:35;2.90;99.90
2202;DHT22;1107;48.654;9.250;2023-04-06T00:13:02;3.00;99.90
2202;DHT22;1107;48.654;9.250;2023-04-06T00:15:29;3.00;99.90
2202;DHT22;1107;48.654;9.250;2023-04-06T00:17:56;3.00;99.90
2202;DHT22;1107;48.654;9.250;2023-04-06T00:20:23;3.10;99.90
2202;DHT22;1107;48.654;9.250;2023-04-06T00:22:51;3.10;99.90
2202;DHT22;1107;48.654;9.250;2023-04-06T00:25:19;3.10;99.90
2202;DHT22;1107;48.654;9.250;2023-04-06T00:27:46;3.10;99.90
2202;DHT22;1107;48.654;9.250;2023-04-06T00:30:13;3.10;99.90
2202;DHT22;1107;48.654;9.250;2023-04-06T00:32:40;3.10;99.90
2202;DHT22;1107;48.654;9.250;2023-04-06T00:35:08;3.00;99.90
2202;DHT22;1107;48.654;9.250;2023-04-06T00:37:35;3.00;99.90
2202;DHT22;1107;48.654;9.250;2023-04-06T00:40:05;3.00;99.90
2202;DHT22;1107;48.654;9.250;2023-04-06T00:42:32;3.00;99.90
2202;DHT22;1107;48.654;9.250;2023-04-06T00:45:00;2.90;99.90
2202;DHT22;1107;48.654;9.250;2023-04-06T00:47:28;2.90;99.90
2202;DHT22;1107;48.654;9.250;2023-04-06T00:49:55;2.90;99.90
2202;DHT22;1107;48.654;9.250;2023-04-06T00:52:23;2.90;99.90
2202;DHT22;1107;48.654;9.250;2023-04-06T00:54:50;2.90;99.90
2202;DHT22;1107;48.654;9.250;2023-04-06T00:57:19;2.90;99.90
2202;DHT22;1107;48.654;9.250;2023-04-06T00:59:46;2.80;99.90
2202;DHT22;1107;48.654;9.250;2023-04-06T01:02:13;2.80;99.90
2202;DHT22;1107;48.654;9.250;2023-04-06T01:04:40;2.70;99.90
2202;DHT22;1107;48.654;9.250;2023-04-06T01:07:07;2.70;99.90
2202;DHT22;1107;48.654;9.250;2023-04-06T01:09:35;2.70;99.90
2202;DHT22;1107;48.654;9.250;2023-04-06T01:12:02;2.60;99.90
2202;DHT22;1107;48.654;9.250;2023-04-06T01:14:30;2.60;99.90
2202;DHT22;1107;48.654;9.250;2023-04-06T01:16:58;2.60;99.90
2202;DHT22;1107;48.654;9.250;2023-04-06T01:19:27;2.60;99.90
2202;DHT22;1107;48.654;9.250;2023-04-06T01:21:54;2.60;99.90
2202;DHT22;1107;48.654;9.250;2023-04-06T01:24:22;2.60;99.90
2202;DHT22;1107;48.654;9.250;2023-04-06T01:26:49;2.60;99.90
2202;DHT22;1107;48.654;9.250;2023-04-06T01:29:17;2.60;99.90
2202;DHT22;1107;48.654;9.250;2023-04-06T01:31:44;2.60;99.90
2202;DHT22;1107;48.654;9.250;2023-04-06T01:34:11;2.60;99.90
2202;DHT22;1107;48.654;9.250;2023-04-06T01:36:39;2.60;99.90
2202;DHT22;1107;48.654;9.250;2023-04-06T01:39:06;2.60;99.90
2202;DHT22;1107;48.654;9.250;2023-04-06T01:41:35;2.60;99.90
2202;DHT22;1107;48.654;9.250;2023-04-06T01:44:02;2.60;99.90
2202;DHT22;1107;48.654;9.250;2023-04-06T01:46:29;2.60;99.90
2202;DHT22;1107;48.654;9.250;2023-04-06T01:48:56;2.60;99.90
2202;DHT22;1107;48.654;9.250;2023-04-06T01:51:23;2.60;99.90
2202;DHT22;1107;48.654;9.250;2023-04-06T01:53:51;2.60;99.90
2202;DHT22;1107;48.654;9.250;2023-04-06T01:56:18;2.60;99.90
2202;DHT22;1107;48.654;9.250;2023-04-06T01:58:47;2.60;99.90
2202;DHT22;1107;48.654;9.250;2023-04-06T02:01:14;2.60;99.90
2202;DHT22;1107;48.654;9.250;2023-04-06T02:03:42;2.60;99.90
2202;DHT22;1107;48.654;9.250;2023-04-06T02:06:10;2.50;99.90
2202;DHT22;1107;48.654;9.250;2023-04-06T02:08:37;2.50;99.90
2202;DHT22;1107;48.654;9.250;2023-04-06T02:11:04;2.50;99.90
2202;DHT22;1107;48.654;9.250;2023-04-06T02:13:31;2.50;99.90
2202;DHT22;1107;48.654;9.250;2023-04-06T02:16:00;2.50;99.90
2202;DHT22;1107;48.654;9.250;2023-04-06T02:18:28;2.50;99.90
2202;DHT22;1107;48.654;9.250;2023-04-06T02:20:55;2.50;99.90
2202;DHT22;1107;48.654;9.250;2023-04-06T02:23:22;2.40;99.90
2202;DHT22;1107;48.654;9.250;2023-04-06T02:25:49;2.40;99.90
2202;DHT22;1107;48.654;9.250;2023-04-06T02:28:16;2.40;99.90
2202;DHT22;1107;48.654;9.250;2023-04-06T02:30:43;2.40;99.90
2202;DHT22;1107;48.654;9.250;2023-04-06T02:33:12;2.30;99.90
2202;DHT22;1107;48.654;9.250;2023-04-06T02:35:40;2.20;99.90
2202;DHT22;1107;48.654;9.250;2023-04-06T02:38:07;2.20;99.90
2202;DHT22;1107;48.654;9.250;2023-04-06T02:40:34;2.10;99.90
2202;DHT22;1107;48.654;9.250;2023-04-06T02:43:01;2.10;99.90
2202;DHT22;1107;48.654;9.250;2023-04-06T02:45:28;2.00;99.90
2202;DHT22;1107;48.654;9.250;2023-04-06T02:47:55;2.00;99.90
2202;DHT22;1107;48.654;9.250;2023-04-06T02:50:24;2.00;99.90
2202;DHT22;1107;48.654;9.250;2023-04-06T02:52:52;2.00;99.90
2202;DHT22;1107;48.654;9.250;2023-04-06T02:55:19;2.00;99.90
2202;DHT22;1107;48.654;9.250;2023-04-06T02:57:46;1.90;99.90
2202;DHT22;1107;48.654;9.250;2023-04-06T03:00:15;1.90;99.90
2202;DHT22;1107;48.654;9.250;2023-04-06T03:02:42;1.80;99.90
2202;DHT22;1107;48.654;9.250;2023-04-06T03:05:09;1.80;99.90
2202;DHT22;1107;48.654;9.250;2023-04-06T03:07:38;1.80;99.90
2202;DHT22;1107;48.654;9.250;2023-04-06T03:10:06;1.70;99.90
2202;DHT22;1107;48.654;9.250;2023-04-06T03:12:33;1.70;99.90
2202;DHT22;1107;48.654;9.250;2023-04-06T03:15:00;1.70;99.90
2202;DHT22;1107;48.654;9.250;2023-04-06T03:17:27;1.70;99.90
2202;DHT22;1107;48.654;9.250;2023-04-06T03:19:54;1.70;99.90
2202;DHT22;1107;48.654;9.250;2023-04-06T03:22:22;1.70;99.90
2202;DHT22;1107;48.654;9.250;2023-04-06T03:24:50;1.70;99.90
2202;DHT22;1107;48.654;9.250;2023-04-06T03:27:17;1.60;99.90
2202;DHT22;1107;48.654;9.250;2023-04-06T03:29:45;1.60;99.90
2202;DHT22;1107;48.654;9.250;2023-04-06T03:32:13;1.60;99.90
2202;DHT22;1107;48.654;9.250;2023-04-06T03:34:40;1.50;99.90
2202;DHT22;1107;48.654;9.250;2023-04-06T03:37:07;1.50;99.90
2202;DHT22;1107;48.654;9.250;2023-04-06T03:39:34;1.40;99.90
2202;DHT22;1107;48.654;9.250;2023-04-06T03:42:06;1.40;99.90
2202;DHT22;1107;48.654;9.250;2023-04-06T03:44:34;1.30;99.90
2202;DHT22;1107;48.654;9.250;2023-04-06T03:47:01;1.30;99.90
2202;DHT22;1107;48.654;9.250;2023-04-06T03:49:28;1.20;99.90
2202;DHT22;1107;48.654;9.250;2023-04-06T03:51:56;1.20;99.90
2202;DHT22;1107;48.654;9.250;2023-04-06T03:54:23;1.20;99.90
2202;DHT22;1107;48.654;9.250;2023-04-06T03:56:51;1.10;99.90
2202;DHT22;1107;48.654;9.250;2023-04-06T03:59:19;1.00;99.90
2202;DHT22;1107;48.654;9.250;2023-04-06T04:01:46;1.00;99.90
2202;DHT22;1107;48.654;9.250;2023-04-06T04:04:14;0.90;99.90
2202;DHT22;1107;48.654;9.250;2023-04-06T04:06:41;0.80;99.90
2202;DHT22;1107;48.654;9.250;2023-04-06T04:09:08;0.80;99.90
2202;DHT22;1107;48.654;9.250;2023-04-06T04:11:36;0.80;99.90
2202;DHT22;1107;48.654;9.250;2023-04-06T04:14:03;0.80;99.90
2202;DHT22;1107;48.654;9.250;2023-04-06T04:16:31;0.80;99.90
2202;DHT22;1107;48.654;9.250;2023-04-06T04:18:58;0.80;99.90
2202;DHT22;1107;48.654;9.250;2023-04-06T04:21:25;0.80;99.90
2202;DHT22;1107;48.654;9.250;2023-04-06T04:23:52;0.80;99.90
2202;DHT22;1107;48.654;9.250;2023-04-06T04:26:19;0.80;99.90
2202;DHT22;1107;48.654;9.250;2023-04-06T04:28:46;0.70;99.90
2202;DHT22;1107;48.654;9.250;2023-04-06T04:31:13;0.70;99.90
2202;DHT22;1107;48.654;9.250;2023-04-06T04:33:44;0.70;99.90
2202;DHT22;1107;48.654;9.250;2023-04-06T04:36:11;0.70;99.90
2202;DHT22;1107;48.654;9.250;2023-04-06T04:38:38;0.70;99.90
2202;DHT22;1107;48.654;9.250;2023-04-06T04:41:05;0.80;99.90
2202;DHT22;1107;48.654;9.250;2023-04-06T04:43:32;0.80;99.90
2202;DHT22;1107;48.654;9.250;2023-04-06T04:45:59;0.80;99.90
2202;DHT22;1107;48.654;9.250;2023-04-06T04:48:26;0.80;99.90
2202;DHT22;1107;48.654;9.250;2023-04-06T04:50:54;0.80;99.90
2202;DHT22;1107;48.654;9.250;2023-04-06T04:53:22;0.80;99.90
2202;DHT22;1107;48.654;9.250;2023-04-06T04:55:49;0.80;99.90
2202;DHT22;1107;48.654;9.250;2023-04-06T04:58:16;0.80;99.90
2202;DHT22;1107;48.654;9.250;2023-04-06T05:00:45;0.80;99.90
2202;DHT22;1107;48.654;9.250;2023-04-06T05:03:23;0.80;1.00
2202;DHT22;1107;48.654;9.250;2023-04-06T05:05:50;0.90;1.00
2202;DHT22;1107;48.654;9.250;2023-04-06T05:08:19;0.90;1.00
2202;DHT22;1107;48.654;9.250;2023-04-06T05:10:46;1.00;1.00
2202;DHT22;1107;48.654;9.250;2023-04-06T05:13:13;0.90;1.00
2202;DHT22;1107;48.654;9.250;2023-04-06T05:15:41;0.90;1.00
2202;DHT22;1107;48.654;9.250;2023-04-06T05:18:08;1.00;1.00
2202;DHT22;1107;48.654;9.250;2023-04-06T05:20:36;1.00;1.00
2202;DHT22;1107;48.654;9.250;2023-04-06T05:23:03;1.10;1.00
2202;DHT22;1107;48.654;9.250;2023-04-06T05:25:32;1.10;1.00
2202;DHT22;1107;48.654;9.250;2023-04-06T05:27:59;1.10;99.90
2202;DHT22;1107;48.654;9.250;2023-04-06T05:30:26;1.20;99.90
2202;DHT22;1107;48.654;9.250;2023-04-06T05:32:53;1.20;99.90
2202;DHT22;1107;48.654;9.250;2023-04-06T05:35:20;1.20;1.00
2202;DHT22;1107;48.654;9.250;2023-04-06T05:37:47;1.20;1.00
2202;DHT22;1107;48.654;9.250;2023-04-06T05:40:14;1.40;1.00
2202;DHT22;1107;48.654;9.250;2023-04-06T05:42:43;1.50;1.00
2202;DHT22;1107;48.654;9.250;2023-04-06T05:45:11;1.60;1.00
2202;DHT22;1107;48.654;9.250;2023-04-06T05:47:42;1.80;99.90
2202;DHT22;1107;48.654;9.250;2023-04-06T05:50:09;1.80;99.90
2202;DHT22;1107;48.654;9.250;2023-04-06T05:52:36;2.00;99.90
2202;DHT22;1107;48.654;9.250;2023-04-06T05:55:04;2.10;99.90
2202;DHT22;1107;48.654;9.250;2023-04-06T05:57:31;2.30;99.90
2202;DHT22;1107;48.654;9.250;2023-04-06T06:00:00;2.50;99.90
2202;DHT22;1107;48.654;9.250;2023-04-06T06:02:30;2.60;99.90
2202;DHT22;1107;48.654;9.250;2023-04-06T06:04:57;2.70;99.90
2202;DHT22;1107;48.654;9.250;2023-04-06T06:07:24;2.70;99.90
2202;DHT22;1107;48.654;9.250;2023-04-06T06:09:51;2.90;99.90
2202;DHT22;1107;48.654;9.250;2023-04-06T06:12:19;3.10;99.90
2202;DHT22;1107;48.654;9.250;2023-04-06T06:14:46;3.30;99.90
2202;DHT22;1107;48.654;9.250;2023-04-06T06:17:14;3.40;99.90
2202;DHT22;1107;48.654;9.250;2023-04-06T06:19:41;3.70;99.90
2202;DHT22;1107;48.654;9.250;2023-04-06T06:22:08;4.00;99.90
2202;DHT22;1107;48.654;9.250;2023-04-06T06:24:35;4.40;99.90
2202;DHT22;1107;48.654;9.250;2023-04-06T06:27:02;4.50;99.90
2202;DHT22;1107;48.654;9.250;2023-04-06T06:29:29;4.40;99.90
2202;DHT22;1107;48.654;9.250;2023-04-06T06:31:56;4.50;99.90
2202;DHT22;1107;48.654;9.250;2023-04-06T06:34:25;4.80;99.90
2202;DHT22;1107;48.654;9.250;2023-04-06T06:36:51;5.20;99.90
2202;DHT22;1107;48.654;9.250;2023-04-06T06:39:20;5.40;99.90
2202;DHT22;1107;48.654;9.250;2023-04-06T06:41:47;5.60;99.90
2202;DHT22;1107;48.654;9.250;2023-04-06T06:44:15;5.40;99.90
2202;DHT22;1107;48.654;9.250;2023-04-06T06:46:41;5.60;99.90
2202;DHT22;1107;48.654;9.250;2023-04-06T06:49:08;5.90;99.90
2202;DHT22;1107;48.654;9.250;2023-04-06T06:51:37;6.00;99.90
2202;DHT22;1107;48.654;9.250;2023-04-06T06:54:04;6.20;99.90
2202;DHT22;1107;48.654;9.250;2023-04-06T06:56:31;6.30;99.90
2202;DHT22;1107;48.654;9.250;2023-04-06T06:58:58;6.60;99.90
2202;DHT22;1107;48.654;9.250;2023-04-06T07:01:25;6.70;99.90
2202;DHT22;1107;48.654;9.250;2023-04-06T07:03:52;6.90;99.90
2202;DHT22;1107;48.654;9.250;2023-04-06T07:06:19;7.00;99.90
2202;DHT22;1107;48.654;9.250;2023-04-06T07:08:47;7.40;99.90
2202;DHT22;1107;48.654;9.250;2023-04-06T07:11:14;7.80;99.90
2202;DHT22;1107;48.654;9.250;2023-04-06T07:13:42;8.00;99.90
2202;DHT22;1107;48.654;9.250;2023-04-06T07:16:09;8.70;99.90
2202;DHT22;1107;48.654;9.250;2023-04-06T07:18:36;9.30;99.90
2202;DHT22;1107;48.654;9.250;2023-04-06T07:21:04;9.20;99.90
2202;DHT22;1107;48.654;9.250;2023-04-06T07:23:31;9.30;99.90
2202;DHT22;1107;48.654;9.250;2023-04-06T07:25:59;9.10;99.90
2202;DHT22;1107;48.654;9.250;2023-04-06T07:28:26;9.50;99.90
2202;DHT22;1107;48.654;9.250;2023-04-06T07:30:55;9.40;99.90
2202;DHT22;1107;48.654;9.250;2023-04-06T07:33:23;9.50;99.90
2202;DHT22;1107;48.654;9.250;2023-04-06T07:35:55;9.80;99.90
2202;DHT22;1107;48.654;9.250;2023-04-06T07:38:22;10.20;99.90
2202;DHT22;1107;48.654;9.250;2023-04-06T07:40:49;10.00;99.90
2202;DHT22;1107;48.654;9.250;2023-04-06T07:43:17;10.50;99.90
2202;DHT22;1107;48.654;9.250;2023-04-06T07:45:44;10.40;99.90
2202;DHT22;1107;48.654;9.250;2023-04-06T07:48:11;11.20;99.90
2202;DHT22;1107;48.654;9.250;2023-04-06T07:50:39;11.60;99.90
2202;DHT22;1107;48.654;9.250;2023-04-06T07:53:06;11.60;99.90
2202;DHT22;1107;48.654;9.250;2023-04-06T07:55:33;11.90;99.90
2202;DHT22;1107;48.654;9.250;2023-04-06T07:58:00;12.10;99.90
2202;DHT22;1107;48.654;9.250;2023-04-06T08:00:28;11.80;98.40
2202;DHT22;1107;48.654;9.250;2023-04-06T08:02:55;12.50;99.20
2202;DHT22;1107;48.654;9.250;2023-04-06T08:05:22;12.60;94.90
2202;DHT22;1107;48.654;9.250;2023-04-06T08:07:49;12.70;99.90
2202;DHT22;1107;48.654;9.250;2023-04-06T08:10:16;12.60;88.80
2202;DHT22;1107;48.654;9.250;2023-04-06T08:12:43;13.20;86.50
2202;DHT22;1107;48.654;9.250;2023-04-06T08:15:10;13.20;77.60
2202;DHT22;1107;48.654;9.250;2023-04-06T08:17:39;13.50;71.40
2202;DHT22;1107;48.654;9.250;2023-04-06T08:20:06;13.80;71.50
2202;DHT22;1107;48.654;9.250;2023-04-06T08:22:33;14.00;69.00
2202;DHT22;1107;48.654;9.250;2023-04-06T08:25:00;14.30;63.00
2202;DHT22;1107;48.654;9.250;2023-04-06T08:27:27;14.60;61.10
2202;DHT22;1107;48.654;9.250;2023-04-06T08:29:54;14.90;58.30
2202;DHT22;1107;48.654;9.250;2023-04-06T08:32:20;15.10;53.30
2202;DHT22;1107;48.654;9.250;2023-04-06T08:34:49;14.50;49.10
2202;DHT22;1107;48.654;9.250;2023-04-06T08:37:19;15.20;48.60
2202;DHT22;1107;48.654;9.250;2023-04-06T08:39:46;16.00;48.50
2202;DHT22;1107;48.654;9.250;2023-04-06T08:42:18;14.90;40.40
2202;DHT22;1107;48.654;9.250;2023-04-06T08:44:46;15.00;38.00
2202;DHT22;1107;48.654;9.250;2023-04-06T08:47:13;15.10;35.70
2202;DHT22;1107;48.654;9.250;2023-04-06T08:49:42;16.00;39.20
2202;DHT22;1107;48.654;9.250;2023-04-06T08:52:12;16.10;37.90
2202;DHT22;1107;48.654;9.250;2023-04-06T08:54:40;17.00;41.00
2202;DHT22;1107;48.654;9.250;2023-04-06T08:57:07;17.10;37.30
2202;DHT22;1107;48.654;9.250;2023-04-06T08:59:34;16.80;34.10
2202;DHT22;1107;48.654;9.250;2023-04-06T09:02:03;17.10;34.50
2202;DHT22;1107;48.654;9.250;2023-04-06T09:04:32;17.90;34.70
2202;DHT22;1107;48.654;9.250;2023-04-06T09:07:00;18.70;39.30
2202;DHT22;1107;48.654;9.250;2023-04-06T09:09:28;19.40;55.60
2202;DHT22;1107;48.654;9.250;2023-04-06T09:11:55;19.50;35.50
2202;DHT22;1107;48.654;9.250;2023-04-06T09:14:33;19.50;30.40
2202;DHT22;1107;48.654;9.250;2023-04-06T09:17:00;19.20;27.50
2202;DHT22;1107;48.654;9.250;2023-04-06T09:19:27;19.50;44.50
2202;DHT22;1107;48.654;9.250;2023-04-06T09:22:00;19.60;26.10
2202;DHT22;1107;48.654;9.250;2023-04-06T09:24:38;19.50;24.70
2202;DHT22;1107;48.654;9.250;2023-04-06T09:27:05;19.70;23.60
2202;DHT22;1107;48.654;9.250;2023-04-06T09:29:32;19.80;22.50
2202;DHT22;1107;48.654;9.250;2023-04-06T09:32:03;20.10;22.20
2202;DHT22;1107;48.654;9.250;2023-04-06T09:34:30;20.20;20.40
2202;DHT22;1107;48.654;9.250;2023-04-06T09:36:57;20.50;18.60
2202;DHT22;1107;48.654;9.250;2023-04-06T09:39:24;20.90;20.00
2202;DHT22;1107;48.654;9.250;2023-04-06T09:41:53;20.80;18.00
2202;DHT22;1107;48.654;9.250;2023-04-06T09:44:21;20.80;15.90
2202;DHT22;1107;48.654;9.250;2023-04-06T09:46:49;21.10;15.50
2202;DHT22;1107;48.654;9.250;2023-04-06T09:49:16;21.20;14.10
2202;DHT22;1107;48.654;9.250;2023-04-06T09:51:45;21.10;12.10
2202;DHT22;1107;48.654;9.250;2023-04-06T09:54:15;21.10;11.40
2202;DHT22;1107;48.654;9.250;2023-04-06T09:56:45;21.50;9.90
2202;DHT22;1107;48.654;9.250;2023-04-06T09:59:16;21.60;9.20
2202;DHT22;1107;48.654;9.250;2023-04-06T10:01:45;22.10;10.60
2202;DHT22;1107;48.654;9.250;2023-04-06T10:04:17;22.00;9.60
2202;DHT22;1107;48.654;9.250;2023-04-06T10:06:48;22.30;7.60
2202;DHT22;1107;48.654;9.250;2023-04-06T10:09:18;22.60;6.90
2202;DHT22;1107;48.654;9.250;2023-04-06T10:11:45;22.40;4.00
2202;DHT22;1107;48.654;9.250;2023-04-06T10:14:13;22.00;1.80
2202;DHT22;1107;48.654;9.250;2023-04-06T10:16:41;21.90;1.00
2202;DHT22;1107;48.654;9.250;2023-04-06T10:19:09;21.10;1.00
2202;DHT22;1107;48.654;9.250;2023-04-06T10:21:39;20.40;1.00
2202;DHT22;1107;48.654;9.250;2023-04-06T10:24:07;20.00;1.00
2202;DHT22;1107;48.654;9.250;2023-04-06T10:26:36;19.40;1.00
2202;DHT22;1107;48.654;9.250;2023-04-06T10:29:03;19.00;1.00
2202;DHT22;1107;48.654;9.250;2023-04-06T10:31:32;18.40;1.00
2202;DHT22;1107;48.654;9.250;2023-04-06T10:34:00;18.50;1.00
2202;DHT22;1107;48.654;9.250;2023-04-06T10:36:28;18.70;1.00
2202;DHT22;1107;48.654;9.250;2023-04-06T10:38:59;18.70;1.00
2202;DHT22;1107;48.654;9.250;2023-04-06T10:41:33;19.10;1.00
2202;DHT22;1107;48.654;9.250;2023-04-06T10:44:00;19.30;1.00
2202;DHT22;1107;48.654;9.250;2023-04-06T10:46:30;19.10;1.00
2202;DHT22;1107;48.654;9.250;2023-04-06T10:49:09;18.80;1.00
2202;DHT22;1107;48.654;9.250;2023-04-06T10:51:38;18.40;1.00
2202;DHT22;1107;48.654;9.250;2023-04-06T10:54:06;18.10;1.00
2202;DHT22;1107;48.654;9.250;2023-04-06T10:56:36;17.40;1.00
2202;DHT22;1107;48.654;9.250;2023-04-06T10:59:06;17.80;1.00
2202;DHT22;1107;48.654;9.250;2023-04-06T11:01:34;18.10;1.00
2202;DHT22;1107;48.654;9.250;2023-04-06T11:04:02;18.40;1.00
2202;DHT22;1107;48.654;9.250;2023-04-06T11:06:30;18.70;1.00
2202;DHT22;1107;48.654;9.250;2023-04-06T11:08:58;17.50;1.00
2202;DHT22;1107;48.654;9.250;2023-04-06T11:11:26;17.70;1.00
2202;DHT22;1107;48.654;9.250;2023-04-06T11:13:55;17.60;1.00
2202;DHT22;1107;48.654;9.250;2023-04-06T11:16:23;17.90;1.00
2202;DHT22;1107;48.654;9.250;2023-04-06T11:18:55;17.50;1.00
2202;DHT22;1107;48.654;9.250;2023-04-06T11:21:34;17.90;1.00
2202;DHT22;1107;48.654;9.250;2023-04-06T11:24:09;17.60;1.00
2202;DHT22;1107;48.654;9.250;2023-04-06T11:26:41;17.70;1.00
2202;DHT22;1107;48.654;9.250;2023-04-06T11:29:09;18.30;1.00
2202;DHT22;1107;48.654;9.250;2023-04-06T11:31:40;18.50;1.00
2202;DHT22;1107;48.654;9.250;2023-04-06T11:34:11;18.50;1.00
2202;DHT22;1107;48.654;9.250;2023-04-06T11:36:44;18.10;1.00
2202;DHT22;1107;48.654;9.250;2023-04-06T11:39:12;18.60;1.00
2202;DHT22;1107;48.654;9.250;2023-04-06T11:41:40;18.80;1.00
2202;DHT22;1107;48.654;9.250;2023-04-06T11:44:07;18.80;1.00
2202;DHT22;1107;48.654;9.250;2023-04-06T11:46:35;18.70;1.00
2202;DHT22;1107;48.654;9.250;2023-04-06T11:49:02;18.40;1.00
2202;DHT22;1107;48.654;9.250;2023-04-06T11:51:29;17.30;1.00
2202;DHT22;1107;48.654;9.250;2023-04-06T11:53:58;17.30;1.00
2202;DHT22;1107;48.654;9.250;2023-04-06T11:56:27;17.40;1.00
2202;DHT22;1107;48.654;9.250;2023-04-06T11:58:55;17.60;1.00
2202;DHT22;1107;48.654;9.250;2023-04-06T12:01:23;18.30;1.00
2202;DHT22;1107;48.654;9.250;2023-04-06T12:03:50;18.70;1.00
2202;DHT22;1107;48.654;9.250;2023-04-06T12:06:18;19.20;1.00
2202;DHT22;1107;48.654;9.250;2023-04-06T12:08:45;19.10;1.00
2202;DHT22;1107;48.654;9.250;2023-04-06T12:11:13;18.90;1.00
2202;DHT22;1107;48.654;9.250;2023-04-06T12:13:41;18.60;1.00
2202;DHT22;1107;48.654;9.250;2023-04-06T12:16:09;18.70;1.00
2202;DHT22;1107;48.654;9.250;2023-04-06T12:18:36;18.20;1.00
2202;DHT22;1107;48.654;9.250;2023-04-06T12:21:03;18.90;1.00
2202;DHT22;1107;48.654;9.250;2023-04-06T12:23:31;17.90;1.00
2202;DHT22;1107;48.654;9.250;2023-04-06T12:25:59;17.80;1.00
2202;DHT22;1107;48.654;9.250;2023-04-06T12:28:28;17.90;1.00
2202;DHT22;1107;48.654;9.250;2023-04-06T12:30:55;18.00;1.00
2202;DHT22;1107;48.654;9.250;2023-04-06T12:33:22;17.90;1.00
2202;DHT22;1107;48.654;9.250;2023-04-06T12:35:49;18.40;1.00
2202;DHT22;1107;48.654;9.250;2023-04-06T12:38:16;19.20;1.00
2202;DHT22;1107;48.654;9.250;2023-04-06T12:40:43;19.10;1.00
2202;DHT22;1107;48.654;9.250;2023-04-06T12:43:10;18.90;1.00
2202;DHT22;1107;48.654;9.250;2023-04-06T12:45:40;19.00;1.00
2202;DHT22;1107;48.654;9.250;2023-04-06T12:48:07;19.20;1.00
2202;DHT22;1107;48.654;9.250;2023-04-06T12:50:34;19.20;1.00
2202;DHT22;1107;48.654;9.250;2023-04-06T12:53:01;19.30;1.00
2202;DHT22;1107;48.654;9.250;2023-04-06T12:55:30;19.50;1.00
2202;DHT22;1107;48.654;9.250;2023-04-06T12:57:59;19.50;1.00
2202;DHT22;1107;48.654;9.250;2023-04-06T13:00:27;19.90;1.00
2202;DHT22;1107;48.654;9.250;2023-04-06T13:02:56;19.50;1.00
2202;DHT22;1107;48.654;9.250;2023-04-06T13:05:23;19.40;1.00
2202;DHT22;1107;48.654;9.250;2023-04-06T13:07:50;19.40;1.00
2202;DHT22;1107;48.654;9.250;2023-04-06T13:10:17;19.60;1.00
2202;DHT22;1107;48.654;9.250;2023-04-06T13:12:44;19.10;1.00
2202;DHT22;1107;48.654;9.250;2023-04-06T13:15:11;19.50;1.00
2202;DHT22;1107;48.654;9.250;2023-04-06T13:17:38;19.70;1.00
2202;DHT22;1107;48.654;9.250;2023-04-06T13:20:08;19.90;1.00
2202;DHT22;1107;48.654;9.250;2023-04-06T13:22:35;19.30;1.00
2202;DHT22;1107;48.654;9.250;2023-04-06T13:25:03;18.90;1.00
2202;DHT22;1107;48.654;9.250;2023-04-06T13:27:30;18.90;1.00
2202;DHT22;1107;48.654;9.250;2023-04-06T13:29:59;18.40;1.00
2202;DHT22;1107;48.654;9.250;2023-04-06T13:32:27;18.90;1.00
2202;DHT22;1107;48.654;9.250;2023-04-06T13:34:54;19.10;1.00
2202;DHT22;1107;48.654;9.250;2023-04-06T13:37:23;19.20;1.00
2202;DHT22;1107;48.654;9.250;2023-04-06T13:39:50;19.10;1.00
2202;DHT22;1107;48.654;9.250;2023-04-06T13:42:17;18.60;1.00
2202;DHT22;1107;48.654;9.250;2023-04-06T13:44:44;18.00;1.00
2202;DHT22;1107;48.654;9.250;2023-04-06T13:47:13;17.80;1.00
2202;DHT22;1107;48.654;9.250;2023-04-06T13:49:41;17.30;1.00
2202;DHT22;1107;48.654;9.250;2023-04-06T13:52:08;17.00;1.00
2202;DHT22;1107;48.654;9.250;2023-04-06T13:54:37;16.90;1.00
2202;DHT22;1107;48.654;9.250;2023-04-06T13:57:04;16.40;1.00
2202;DHT22;1107;48.654;9.250;2023-04-06T13:59:33;16.30;1.00
2202;DHT22;1107;48.654;9.250;2023-04-06T14:02:01;16.30;1.00
2202;DHT22;1107;48.654;9.250;2023-04-06T14:04:27;16.50;1.00
2202;DHT22;1107;48.654;9.250;2023-04-06T14:06:55;16.70;1.00
2202;DHT22;1107;48.654;9.250;2023-04-06T14:09:21;16.30;1.00
2202;DHT22;1107;48.654;9.250;2023-04-06T14:11:50;16.20;1.00
2202;DHT22;1107;48.654;9.250;2023-04-06T14:14:17;16.40;1.00
2202;DHT22;1107;48.654;9.250;2023-04-06T14:16:45;16.60;1.00
2202;DHT22;1107;48.654;9.250;2023-04-06T14:19:12;16.40;1.00
2202;DHT22;1107;48.654;9.250;2023-04-06T14:21:39;16.40;1.00
2202;DHT22;1107;48.654;9.250;2023-04-06T14:24:07;16.40;1.00
2202;DHT22;1107;48.654;9.250;2023-04-06T14:26:35;16.50;1.00
2202;DHT22;1107;48.654;9.250;2023-04-06T14:29:04;16.70;1.00
2202;DHT22;1107;48.654;9.250;2023-04-06T14:31:31;16.70;1.00
2202;DHT22;1107;48.654;9.250;2023-04-06T14:34:00;16.20;1.00
2202;DHT22;1107;48.654;9.250;2023-04-06T14:36:28;16.00;1.00
2202;DHT22;1107;48.654;9.250;2023-04-06T14:39:02;15.30;1.00
2202;DHT22;1107;48.654;9.250;2023-04-06T14:41:30;15.20;1.00
2202;DHT22;1107;48.654;9.250;2023-04-06T14:43:58;15.50;1.00
2202;DHT22;1107;48.654;9.250;2023-04-06T14:46:26;15.40;1.00
2202;DHT22;1107;48.654;9.250;2023-04-06T14:48:54;15.30;1.00
2202;DHT22;1107;48.654;9.250;2023-04-06T14:51:21;15.50;1.00
2202;DHT22;1107;48.654;9.250;2023-04-06T14:53:48;15.80;1.00
2202;DHT22;1107;48.654;9.250;2023-04-06T14:56:20;16.00;1.00
2202;DHT22;1107;48.654;9.250;2023-04-06T14:58:47;16.10;1.00
2202;DHT22;1107;48.654;9.250;2023-04-06T15:01:15;16.20;1.00
2202;DHT22;1107;48.654;9.250;2023-04-06T15:03:44;16.30;1.00
2202;DHT22;1107;48.654;9.250;2023-04-06T15:06:12;16.50;1.00
2202;DHT22;1107;48.654;9.250;2023-04-06T15:08:41;16.50;1.00
2202;DHT22;1107;48.654;9.250;2023-04-06T15:11:10;16.40;1.00
2202;DHT22;1107;48.654;9.250;2023-04-06T15:13:37;16.30;1.00
2202;DHT22;1107;48.654;9.250;2023-04-06T15:16:04;16.10;1.00
2202;DHT22;1107;48.654;9.250;2023-04-06T15:18:33;16.00;1.00
2202;DHT22;1107;48.654;9.250;2023-04-06T15:21:02;16.00;1.00
2202;DHT22;1107;48.654;9.250;2023-04-06T15:23:29;16.00;1.00
2202;DHT22;1107;48.654;9.250;2023-04-06T15:25:57;15.90;1.00
2202;DHT22;1107;48.654;9.250;2023-04-06T15:28:25;15.70;1.00
2202;DHT22;1107;48.654;9.250;2023-04-06T15:30:53;15.30;1.00
2202;DHT22;1107;48.654;9.250;2023-04-06T15:33:20;15.10;1.00
2202;DHT22;1107;48.654;9.250;2023-04-06T15:35:48;14.80;1.00
2202;DHT22;1107;48.654;9.250;2023-04-06T15:38:16;14.60;1.00
2202;DHT22;1107;48.654;9.250;2023-04-06T15:40:44;14.30;1.00
2202;DHT22;1107;48.654;9.250;2023-04-06T15:43:12;14.40;1.00
2202;DHT22;1107;48.654;9.250;2023-04-06T15:45:39;14.50;1.00
2202;DHT22;1107;48.654;9.250;2023-04-06T15:48:06;14.50;1.00
2202;DHT22;1107;48.654;9.250;2023-04-06T15:50:34;14.50;1.00
2202;DHT22;1107;48.654;9.250;2023-04-06T15:53:01;14.40;1.00
2202;DHT22;1107;48.654;9.250;2023-04-06T15:55:29;14.30;1.00
2202;DHT22;1107;48.654;9.250;2023-04-06T15:57:56;14.30;1.00
2202;DHT22;1107;48.654;9.250;2023-04-06T16:00:23;14.30;1.00
2202;DHT22;1107;48.654;9.250;2023-04-06T16:02:51;14.10;1.00
2202;DHT22;1107;48.654;9.250;2023-04-06T16:05:18;13.90;1.00
2202;DHT22;1107;48.654;9.250;2023-04-06T16:07:44;14.00;1.00
2202;DHT22;1107;48.654;9.250;2023-04-06T16:10:12;14.00;1.00
2202;DHT22;1107;48.654;9.250;2023-04-06T16:12:40;13.90;1.00
2202;DHT22;1107;48.654;9.250;2023-04-06T16:15:08;13.90;1.00
2202;DHT22;1107;48.654;9.250;2023-04-06T16:17:36;13.90;1.00
2202;DHT22;1107;48.654;9.250;2023-04-06T16:20:04;13.70;1.00